Buoy 46563

sailwx.info

Track history (hours):
 
Tides and Currents Weather Stations Pressure Air Temp Water Temp Dewpoint Dewpoint Depression Visibility Wind Speed Wind Dir Waves Ship Positions

Drifting buoy 46563

Last reported at 2015-May-05 06:00 UTC. Time now 2015-May-05 10:14 UTC.
Position N 22°19' W 133°45'.

Water temperature 22.5 ° C

Date/timePositionNaut miles runAvg speedWind from/ knotsBaromVisibWave heightAir tempDewpointWater temp
2015-May-05 06:00N 22°19' W 133°45'0 0.0 22.5
2015-May-05 05:00N 22°19' W 133°45'1 0.3 22.5
2015-May-05 01:00N 22°18' W 133°44'0 0.0 22.6
2015-May-04 22:00N 22°18' W 133°44'1 0.1 22.6
2015-May-04 16:00N 22°17' W 133°44'2 0.9 22.4
2015-May-04 14:00N 22°17' W 133°42'1 1.1 22.4
2015-May-04 13:00N 22°17' W 133°43'1 0.5 22.4
2015-May-04 11:00N 22°17' W 133°42'0 0.1 22.4
2015-May-04 10:00N 22°17' W 133°42'0 0.1 22.4
2015-May-04 05:00N 22°17' W 133°42'0 0.0 22.5
2015-May-04 04:00N 22°17' W 133°42'1 0.7 22.5
2015-May-04 02:00N 22°17' W 133°40'1 0.2 22.6
2015-May-03 22:00N 22°16' W 133°41'1 0.1 22.7
2015-May-03 07:00N 22°15' W 133°40'0 0.0 22.5
2015-May-03 06:00N 22°15' W 133°40'0 0.1 22.5
2015-May-02 23:00N 22°15' W 133°39'1 0.2 22.7
2015-May-02 19:00N 22°14' W 133°39'1 0.7 22.5
2015-May-02 18:00N 22°14' W 133°39'0 0.0 22.4
2015-May-02 17:00N 22°14' W 133°39'0 0.0 22.4
2015-May-02 12:00N 22°14' W 133°38'1 0.3 22.4
2015-May-02 10:00N 22°14' W 133°39'2 0.3 22.4
2015-May-02 04:00N 22°15' W 133°38'0 0.0 22.5
2015-May-02 03:00N 22°15' W 133°38'2 2.0 22.5
2015-May-02 02:00N 22°13' W 133°38'0 0.1 22.5
2015-May-01 23:00N 22°13' W 133°38'0 0.2 22.5
2015-May-01 22:00N 22°13' W 133°38'1 0.1 22.5
2015-May-01 14:00N 22°12' W 133°37'0 0.1 22.4
2015-May-01 12:00N 22°12' W 133°37'1 0.2 22.4
2015-May-01 09:00N 22°12' W 133°36'0 0.1 22.4
2015-May-01 04:00N 22°12' W 133°36'0 0.4 22.4
2015-May-01 03:00N 22°12' W 133°36'3 0.4 22.4
2015-Apr-30 19:00N 22°12' W 133°32'1 0.3 22.4
2015-Apr-30 17:00N 22°12' W 133°33'2 0.9 22.4
2015-Apr-30 15:00N 22°12' W 133°31'1 0.6 22.4
2015-Apr-30 14:00N 22°12' W 133°31'0 0.1 22.4
2015-Apr-30 13:00N 22°12' W 133°31'1 0.6 22.4
2015-Apr-30 12:00N 22°12' W 133°31'1 0.2 22.4
2015-Apr-30 07:00N 22°12' W 133°30'0 0.2 22.4
2015-Apr-30 05:00N 22°12' W 133°30'1 0.2 22.4
2015-Apr-30 01:00N 22°11' W 133°29'1 0.2 22.4
2015-Apr-29 22:00N 22°11' W 133°28'0 0.0 22.4
2015-Apr-29 21:00N 22°11' W 133°28'2 0.3 22.4
2015-Apr-29 14:00N 22°11' W 133°26'1 0.7 22.4
2015-Apr-29 12:00N 22°11' W 133°25'0 0.1 22.4
2015-Apr-29 10:00N 22°11' W 133°25'1 0.2 22.4
2015-Apr-29 04:00N 22°12' W 133°24'1 0.3 22.4
2015-Apr-29 01:00N 22°11' W 133°24'2 0.2 22.5
2015-Apr-28 15:00N 22°11' W 133°22'0 0.0 22.3
2015-Apr-28 14:00N 22°11' W 133°22'2 0.2 22.3
2015-Apr-28 05:00N 22°10' W 133°20'0 0.0 22.4
2015-Apr-28 04:00N 22°10' W 133°20'2 0.2 22.4
2015-Apr-27 19:00N 22°10' W 133°18'0 0.1 22.3
2015-Apr-27 14:00N 22°10' W 133°19'2 0.2 22.2
2015-Apr-27 04:00N 22°08' W 133°18'2 2.1 22.2
2015-Apr-27 03:00N 22°07' W 133°17'0 0.0 22.2
2015-Apr-27 02:00N 22°07' W 133°17'1 0.1 22.2
2015-Apr-26 14:00N 22°08' W 133°15'0 0.0 22.1
2015-Apr-26 11:00N 22°08' W 133°15'1 0.1 22.1
2015-Apr-26 03:00N 22°08' W 133°14'1 0.5 22.2
2015-Apr-26 01:00N 22°07' W 133°14'0 0.0 22.2
2015-Apr-25 23:00N 22°07' W 133°14'2 0.6 22.2
2015-Apr-25 19:00N 22°07' W 133°12'0 0.1 22.2
2015-Apr-25 14:00N 22°07' W 133°12'0 0.2 22.1
2015-Apr-25 13:00N 22°07' W 133°12'2 0.8 22.1
2015-Apr-25 11:00N 22°08' W 133°12'   22.1
Track history (hours):
 
Tides and Currents Weather Stations Pressure Air Temp Water Temp Dewpoint Dewpoint Depression Visibility Wind Speed Wind Dir Waves Ship Positions

Drifting buoy 46563

Last reported at 2015-May-05 06:00 UTC. Time now 2015-May-05 10:14 UTC.
Position N 22°19' W 133°45'.

Water temperature 22.5 ° C

Date/timePositionNaut miles runAvg speedWind from/ knotsBaromVisibWave heightAir tempDewpointWater temp
2015-May-05 06:00N 22°19' W 133°45'0 0.0 22.5
2015-May-05 05:00N 22°19' W 133°45'1 0.3 22.5
2015-May-05 01:00N 22°18' W 133°44'0 0.0 22.6
2015-May-04 22:00N 22°18' W 133°44'1 0.1 22.6
2015-May-04 16:00N 22°17' W 133°44'2 0.9 22.4
2015-May-04 14:00N 22°17' W 133°42'1 1.1 22.4
2015-May-04 13:00N 22°17' W 133°43'1 0.5 22.4
2015-May-04 11:00N 22°17' W 133°42'0 0.1 22.4
2015-May-04 10:00N 22°17' W 133°42'0 0.1 22.4
2015-May-04 05:00N 22°17' W 133°42'0 0.0 22.5
2015-May-04 04:00N 22°17' W 133°42'1 0.7 22.5
2015-May-04 02:00N 22°17' W 133°40'1 0.2 22.6
2015-May-03 22:00N 22°16' W 133°41'1 0.1 22.7
2015-May-03 07:00N 22°15' W 133°40'0 0.0 22.5
2015-May-03 06:00N 22°15' W 133°40'0 0.1 22.5
2015-May-02 23:00N 22°15' W 133°39'1 0.2 22.7
2015-May-02 19:00N 22°14' W 133°39'1 0.7 22.5
2015-May-02 18:00N 22°14' W 133°39'0 0.0 22.4
2015-May-02 17:00N 22°14' W 133°39'0 0.0 22.4
2015-May-02 12:00N 22°14' W 133°38'1 0.3 22.4
2015-May-02 10:00N 22°14' W 133°39'2 0.3 22.4
2015-May-02 04:00N 22°15' W 133°38'0 0.0 22.5
2015-May-02 03:00N 22°15' W 133°38'2 2.0 22.5
2015-May-02 02:00N 22°13' W 133°38'0 0.1 22.5
2015-May-01 23:00N 22°13' W 133°38'0 0.2 22.5
2015-May-01 22:00N 22°13' W 133°38'1 0.1 22.5
2015-May-01 14:00N 22°12' W 133°37'0 0.1 22.4
2015-May-01 12:00N 22°12' W 133°37'1 0.2 22.4
2015-May-01 09:00N 22°12' W 133°36'0 0.1 22.4
2015-May-01 04:00N 22°12' W 133°36'0 0.4 22.4
2015-May-01 03:00N 22°12' W 133°36'3 0.4 22.4
2015-Apr-30 19:00N 22°12' W 133°32'1 0.3 22.4
2015-Apr-30 17:00N 22°12' W 133°33'2 0.9 22.4
2015-Apr-30 15:00N 22°12' W 133°31'1 0.6 22.4
2015-Apr-30 14:00N 22°12' W 133°31'0 0.1 22.4
2015-Apr-30 13:00N 22°12' W 133°31'1 0.6 22.4
2015-Apr-30 12:00N 22°12' W 133°31'1 0.2 22.4
2015-Apr-30 07:00N 22°12' W 133°30'0 0.2 22.4
2015-Apr-30 05:00N 22°12' W 133°30'1 0.2 22.4
2015-Apr-30 01:00N 22°11' W 133°29'1 0.2 22.4
2015-Apr-29 22:00N 22°11' W 133°28'0 0.0 22.4
2015-Apr-29 21:00N 22°11' W 133°28'2 0.3 22.4
2015-Apr-29 14:00N 22°11' W 133°26'1 0.7 22.4
2015-Apr-29 12:00N 22°11' W 133°25'0 0.1 22.4
2015-Apr-29 10:00N 22°11' W 133°25'1 0.2 22.4
2015-Apr-29 04:00N 22°12' W 133°24'1 0.3 22.4
2015-Apr-29 01:00N 22°11' W 133°24'2 0.2 22.5
2015-Apr-28 15:00N 22°11' W 133°22'0 0.0 22.3
2015-Apr-28 14:00N 22°11' W 133°22'2 0.2 22.3
2015-Apr-28 05:00N 22°10' W 133°20'0 0.0 22.4
2015-Apr-28 04:00N 22°10' W 133°20'2 0.2 22.4
2015-Apr-27 19:00N 22°10' W 133°18'0 0.1 22.3
2015-Apr-27 14:00N 22°10' W 133°19'2 0.2 22.2
2015-Apr-27 04:00N 22°08' W 133°18'2 2.1 22.2
2015-Apr-27 03:00N 22°07' W 133°17'0 0.0 22.2
2015-Apr-27 02:00N 22°07' W 133°17'1 0.1 22.2
2015-Apr-26 14:00N 22°08' W 133°15'0 0.0 22.1
2015-Apr-26 11:00N 22°08' W 133°15'1 0.1 22.1
2015-Apr-26 03:00N 22°08' W 133°14'1 0.5 22.2
2015-Apr-26 01:00N 22°07' W 133°14'0 0.0 22.2
2015-Apr-25 23:00N 22°07' W 133°14'2 0.6 22.2
2015-Apr-25 19:00N 22°07' W 133°12'0 0.1 22.2
2015-Apr-25 14:00N 22°07' W 133°12'0 0.2 22.1
2015-Apr-25 13:00N 22°07' W 133°12'2 0.8 22.1
2015-Apr-25 11:00N 22°08' W 133°12'   22.1

Dump ship's entire track history